Time;durP1;ratioP1;P1;durP2;ratioP2;P2;SDS_P1;SDS_P2;PMS_P1;PMS_P2;Temp;Humidity;BMP_temperature;BMP_pressure;BME280_temperature;BME280_humidity;BME280_pressure;Samples;Min_cycle;Max_cycle;Signal;HPM_P1;HPM_P2
2022/03/31 00:00:43;;;;;;;18.40;8.18;;;6.50;99.90;;;;;;4999985;28;20040;-59
2022/03/31 00:03:15;;;;;;;23.92;10.05;;;6.50;99.90;;;;;;5000089;28;20019;-59
2022/03/31 00:05:41;;;;;;;;;;;6.40;99.90;;;;;;5000513;28;20109;-59
2022/03/31 00:08:09;;;;;;;20.92;9.02;;;6.40;99.90;;;;;;5000153;28;19945;-59
2022/03/31 00:10:37;;;;;;;22.88;8.50;;;6.30;99.90;;;;;;4998968;28;20113;-59
2022/03/31 00:13:05;;;;;;;19.98;9.13;;;6.30;99.90;;;;;;4998520;28;20456;-59
2022/03/31 00:15:31;;;;;;;17.42;7.80;;;6.20;99.90;;;;;;4999843;28;20026;-58
2022/03/31 00:17:59;;;;;;;20.30;9.10;;;6.10;99.90;;;;;;4998771;28;20081;-59
2022/03/31 00:20:26;;;;;;;18.88;9.20;;;6.10;99.90;;;;;;4995604;28;20026;-54
2022/03/31 00:22:51;;;;;;;19.50;8.35;;;6.00;99.90;;;;;;4995569;28;20026;-56
2022/03/31 00:25:17;;;;;;;18.90;8.93;;;5.90;99.90;;;;;;4995409;28;20033;-57
2022/03/31 00:27:43;;;;;;;16.77;7.43;;;5.90;99.90;;;;;;4996342;28;20030;-58
2022/03/31 00:30:11;;;;;;;20.70;7.88;;;5.80;99.90;;;;;;4995420;28;20027;-57
2022/03/31 00:32:37;;;;;;;21.30;8.68;;;5.80;99.90;;;;;;4995254;28;20102;-54
2022/03/31 00:35:04;;;;;;;19.52;9.02;;;5.70;99.90;;;;;;4997059;28;20030;-58
2022/03/31 00:37:30;;;;;;;16.65;7.57;;;5.70;99.90;;;;;;4995136;28;20473;-57
2022/03/31 00:39:56;;;;;;;17.60;8.35;;;5.70;99.90;;;;;;4994998;28;20088;-59
2022/03/31 00:42:22;;;;;;;19.50;8.90;;;5.60;99.90;;;;;;4995466;28;20030;-59
2022/03/31 00:44:48;;;;;;;18.67;9.02;;;5.40;99.90;;;;;;4995024;28;20432;-59
2022/03/31 00:47:14;;;;;;;23.10;8.90;;;5.30;99.90;;;;;;4996566;28;20102;-59
2022/03/31 00:49:40;;;;;;;23.05;8.95;;;5.20;99.90;;;;;;4995733;28;20019;-58
2022/03/31 00:52:06;;;;;;;22.17;8.15;;;5.10;99.90;;;;;;4996419;28;20022;-59
2022/03/31 00:54:34;;;;;;;17.70;9.07;;;5.10;99.90;;;;;;4994835;28;20032;-57
2022/03/31 00:57:02;;;;;;;21.13;9.52;;;5.10;99.90;;;;;;4994798;28;20026;-54
2022/03/31 00:59:29;;;;;;;18.85;7.70;;;5.10;99.90;;;;;;4996109;28;20062;-57
2022/03/31 01:01:56;;;;;;;18.92;8.60;;;5.10;99.90;;;;;;4994761;28;20030;-56
2022/03/31 01:04:22;;;;;;;16.42;7.63;;;5.00;99.90;;;;;;4994852;28;20113;-56
2022/03/31 01:06:49;;;;;;;16.90;7.47;;;5.00;99.90;;;;;;4994883;28;20117;-56
2022/03/31 01:09:15;;;;;;;18.63;7.85;;;5.10;99.90;;;;;;4994576;28;20027;-56
2022/03/31 01:11:41;;;;;;;16.77;7.80;;;4.90;99.90;;;;;;4996066;28;20026;-56
2022/03/31 01:14:08;;;;;;;19.70;8.13;;;4.80;99.90;;;;;;4995730;28;20023;-57
2022/03/31 01:16:35;;;;;;;19.70;8.05;;;4.80;99.90;;;;;;4995687;28;20481;-56
2022/03/31 01:19:09;;;;;;;17.75;7.90;;;4.80;99.90;;;;;;4995555;28;20102;-56
2022/03/31 01:21:46;;;;;;;17.50;8.95;;;4.80;99.90;;;;;;4995649;28;20061;-56
2022/03/31 01:24:17;;;;;;;17.35;8.05;;;4.80;99.90;;;;;;4994394;28;20026;-52
2022/03/31 01:26:43;;;;;;;18.75;7.57;;;4.80;99.90;;;;;;4995640;28;20105;-51
2022/03/31 01:29:09;;;;;;;19.83;8.25;;;4.70;99.90;;;;;;4994387;28;20066;-52
2022/03/31 01:31:38;;;;;;;18.80;8.48;;;4.70;99.90;;;;;;4993223;28;20121;-49
2022/03/31 01:34:04;;;;;;;21.20;8.63;;;4.60;99.90;;;;;;4994360;28;20047;-56
2022/03/31 01:36:30;;;;;;;14.40;7.10;;;4.60;99.90;;;;;;4996797;28;20034;-53
2022/03/31 01:38:56;;;;;;;15.85;7.70;;;4.60;99.90;;;;;;4994108;28;20042;-52
2022/03/31 01:41:25;;;;;;;15.27;8.38;;;4.70;99.90;;;;;;4993843;28;20096;-57
2022/03/31 01:43:51;;;;;;;21.23;8.52;;;4.70;99.90;;;;;;4994562;28;20137;-57
2022/03/31 01:46:16;;;;;;;22.92;9.15;;;4.60;99.90;;;;;;4993334;28;20106;-56
2022/03/31 01:48:42;;;;;;;24.33;9.13;;;4.60;99.90;;;;;;4993587;28;20026;-56
2022/03/31 01:51:08;;;;;;;19.10;8.55;;;4.60;99.90;;;;;;4993696;28;20033;-57
2022/03/31 01:53:35;;;;;;;23.35;10.10;;;4.50;99.90;;;;;;4993628;28;20031;-56
2022/03/31 01:56:02;;;;;;;17.60;7.90;;;4.50;99.90;;;;;;4993742;28;20027;-57
2022/03/31 01:58:27;;;;;;;19.55;8.73;;;4.50;99.90;;;;;;4993899;28;20026;-55
2022/03/31 02:00:53;;;;;;;20.40;8.27;;;4.60;99.90;;;;;;4993960;28;20081;-54
2022/03/31 02:03:19;;;;;;;22.30;8.57;;;4.80;99.90;;;;;;4994829;28;20105;-56
2022/03/31 02:05:45;;;;;;;16.38;8.32;;;4.80;99.90;;;;;;4993692;28;20026;-55
2022/03/31 02:08:11;;;;;;;21.92;8.93;;;4.80;99.90;;;;;;4993734;28;20042;-56
2022/03/31 02:10:36;;;;;;;21.40;8.73;;;4.70;99.90;;;;;;4993401;28;20061;-55
2022/03/31 02:13:03;;;;;;;24.48;9.88;;;4.70;99.90;;;;;;4994637;28;20022;-52
2022/03/31 02:15:29;;;;;;;19.05;8.80;;;4.70;99.90;;;;;;4993951;28;20022;-57
2022/03/31 02:17:55;;;;;;;20.00;9.27;;;4.70;99.90;;;;;;4992832;28;20026;-54
2022/03/31 02:20:27;;;;;;;22.02;9.00;;;4.70;99.90;;;;;;4992838;28;20026;-56
2022/03/31 02:22:52;;;;;;;18.90;8.43;;;4.70;99.90;;;;;;4992919;28;20026;-53
2022/03/31 02:25:18;;;;;;;20.08;9.15;;;4.70;99.90;;;;;;4992755;28;20026;-57
2022/03/31 02:27:44;;;;;;;17.95;8.00;;;4.70;99.90;;;;;;4993367;28;20049;-55
2022/03/31 02:30:10;;;;;;;18.17;8.82;;;4.70;99.90;;;;;;4993102;28;20482;-57
2022/03/31 02:32:37;;;;;;;21.00;9.88;;;4.70;99.90;;;;;;4994628;28;20022;-57
2022/03/31 02:35:05;;;;;;;26.50;9.70;;;4.60;99.90;;;;;;4994610;28;20469;-56
2022/03/31 02:37:31;;;;;;;22.40;9.00;;;4.60;99.90;;;;;;4994260;28;20081;-55
2022/03/31 02:39:57;;;;;;;23.83;9.38;;;4.60;99.90;;;;;;4992916;28;20038;-57
2022/03/31 02:42:23;;;;;;;20.50;9.00;;;4.60;99.90;;;;;;4992838;28;20044;-57
2022/03/31 02:44:48;;;;;;;17.73;8.27;;;4.60;99.90;;;;;;4993216;28;20053;-57
2022/03/31 02:47:14;;;;;;;21.23;9.40;;;4.60;99.90;;;;;;4992745;28;20117;-57
2022/03/31 02:49:40;;;;;;;20.35;8.10;;;4.60;99.90;;;;;;4993061;28;20022;-56
2022/03/31 02:52:07;;;;;;;23.58;9.75;;;4.60;99.90;;;;;;4994108;28;20022;-56
2022/03/31 02:57:16;;;;;;;19.70;8.23;;;4.60;99.90;;;;;;4994579;28;20037;-55
2022/03/31 02:59:42;;;;;;;23.70;9.32;;;4.50;99.90;;;;;;4992778;28;20432;-53
2022/03/31 03:02:07;;;;;;;18.42;8.90;;;4.40;99.90;;;;;;4994196;28;20150;-57
2022/03/31 03:04:34;;;;;;;19.25;7.80;;;4.40;99.90;;;;;;4992642;28;20030;-57
2022/03/31 03:06:59;;;;;;;21.73;8.95;;;4.40;99.90;;;;;;4992551;28;20022;-55
2022/03/31 03:09:25;;;;;;;25.38;9.93;;;4.30;99.90;;;;;;4992606;28;20033;-55
2022/03/31 03:11:51;;;;;;;20.70;8.98;;;4.20;99.90;;;;;;4992983;28;20033;-55
2022/03/31 03:14:16;;;;;;;22.73;10.13;;;4.20;99.90;;;;;;4992629;28;20121;-57
2022/03/31 03:16:42;;;;;;;26.77;11.82;;;4.20;99.90;;;;;;4993951;28;20046;-55
2022/03/31 03:19:08;;;;;;;25.52;11.10;;;4.30;99.90;;;;;;4994007;28;20469;-50
2022/03/31 03:21:34;;;;;;;21.48;9.20;;;4.40;99.90;;;;;;4993120;28;20030;-54
2022/03/31 03:24:01;;;;;;;19.23;8.52;;;4.50;99.90;;;;;;4992504;28;20033;-56
2022/03/31 03:26:27;;;;;;;20.00;9.05;;;4.40;99.90;;;;;;4992978;28;20026;-53
2022/03/31 03:28:53;;;;;;;19.13;8.32;;;4.40;99.90;;;;;;4993586;28;20023;-55
2022/03/31 03:31:19;;;;;;;25.80;9.50;;;4.50;99.90;;;;;;4993726;28;20057;-55
2022/03/31 03:33:44;;;;;;;21.13;9.05;;;4.50;99.90;;;;;;4992362;28;20022;-55
2022/03/31 03:36:12;;;;;;;23.58;10.10;;;4.50;99.90;;;;;;4993574;28;20112;-57
2022/03/31 03:38:39;;;;;;;26.05;10.93;;;4.50;99.90;;;;;;4993507;28;20116;-56
2022/03/31 03:41:05;;;;;;;22.42;10.40;;;4.50;99.90;;;;;;4992438;28;20026;-55
2022/03/31 03:43:31;;;;;;;21.38;10.05;;;4.50;99.90;;;;;;4993635;28;20031;-55
2022/03/31 03:45:57;;;;;;;35.88;14.35;;;4.40;99.90;;;;;;4993525;28;20090;-55
2022/03/31 03:48:22;;;;;;;25.25;10.93;;;4.40;99.90;;;;;;4992899;28;20026;-55
2022/03/31 03:50:48;;;;;;;23.10;11.13;;;4.40;99.90;;;;;;4992288;28;20022;-53
2022/03/31 03:53:15;;;;;;;23.73;10.45;;;4.40;99.90;;;;;;4992271;28;20035;-55
2022/03/31 03:55:40;;;;;;;23.77;10.18;;;4.30;99.90;;;;;;4995730;28;20054;-51
2022/03/31 03:58:06;;;;;;;26.00;11.32;;;4.20;99.90;;;;;;4995890;28;20057;-54
2022/03/31 04:00:32;;;;;;;24.42;9.95;;;4.30;99.90;;;;;;4997109;28;20086;-56
2022/03/31 04:02:58;;;;;;;23.20;10.57;;;4.20;99.90;;;;;;4995893;28;20029;-55
2022/03/31 04:05:24;;;;;;;27.25;10.65;;;4.20;99.90;;;;;;4995702;28;20117;-55
2022/03/31 04:07:49;;;;;;;28.05;10.13;;;4.20;99.90;;;;;;4995788;28;20023;-56
2022/03/31 04:10:15;;;;;;;24.95;10.90;;;4.20;99.90;;;;;;4995838;28;20023;-57
2022/03/31 04:12:40;;;;;;;22.38;10.60;;;4.20;99.90;;;;;;4996933;28;20023;-57
2022/03/31 04:15:08;;;;;;;28.80;10.93;;;4.20;99.90;;;;;;4995967;28;20029;-55
2022/03/31 04:17:34;;;;;;;31.27;11.52;;;4.20;99.90;;;;;;4995876;28;20027;-57
2022/03/31 04:19:59;;;;;;;32.35;12.13;;;4.10;99.90;;;;;;4995807;28;20108;-57
2022/03/31 04:22:25;;;;;;;24.08;10.43;;;4.20;99.90;;;;;;4995481;28;20073;-54
2022/03/31 04:24:51;;;;;;;24.73;10.88;;;4.30;99.90;;;;;;4997079;28;20049;-56
2022/03/31 04:27:17;;;;;;;26.60;10.98;;;4.40;99.90;;;;;;4996891;28;20030;-57
2022/03/31 04:29:42;;;;;;;26.35;11.30;;;4.50;99.90;;;;;;4996557;28;20045;-56
2022/03/31 04:32:09;;;;;;;26.77;10.82;;;4.70;99.90;;;;;;4995334;28;20022;-57
2022/03/31 04:34:35;;;;;;;31.77;12.23;;;4.70;99.90;;;;;;4995522;28;20068;-56
2022/03/31 04:37:01;;;;;;;26.48;11.43;;;4.50;99.90;;;;;;4995330;28;20058;-55
2022/03/31 04:39:27;;;;;;;31.92;11.02;;;4.40;99.90;;;;;;4995721;28;20066;-57
2022/03/31 04:41:53;;;;;;;24.38;10.70;;;4.40;99.90;;;;;;4995287;28;20026;-58
2022/03/31 04:44:19;;;;;;;25.67;11.57;;;4.30;99.90;;;;;;4995800;28;20033;-57
2022/03/31 04:46:45;;;;;;;25.58;11.50;;;4.40;99.90;;;;;;4994921;28;20053;-55
2022/03/31 04:49:11;;;;;;;29.65;11.63;;;4.30;99.90;;;;;;4994903;28;20081;-55
2022/03/31 04:51:37;;;;;;;32.63;12.85;;;4.20;99.90;;;;;;4996172;28;20023;-57
2022/03/31 04:54:03;;;;;;;28.27;12.07;;;4.20;99.90;;;;;;4996246;28;20061;-56
2022/03/31 04:56:29;;;;;;;23.83;10.52;;;4.20;99.90;;;;;;4995156;28;20429;-56
2022/03/31 04:58:55;;;;;;;25.40;11.07;;;4.20;99.90;;;;;;4995924;28;20030;-57
2022/03/31 05:01:22;;;;;;;26.80;10.77;;;4.20;99.90;;;;;;4996035;28;20049;-57
2022/03/31 05:03:48;;;;;;;25.58;11.43;;;4.20;99.90;;;;;;4996233;28;20026;-55
2022/03/31 05:06:14;;;;;;;30.35;11.23;;;4.20;99.90;;;;;;4994595;28;20035;-56
2022/03/31 05:08:39;;;;;;;26.02;10.65;;;4.20;99.90;;;;;;4995668;28;20029;-57
2022/03/31 05:11:05;;;;;;;29.00;11.63;;;4.20;99.90;;;;;;4994906;28;20022;-56
2022/03/31 05:13:30;;;;;;;29.08;11.13;;;4.20;99.90;;;;;;4994546;28;20019;-54
2022/03/31 05:15:56;;;;;;;30.33;11.32;;;4.20;99.90;;;;;;4994106;28;20023;-58
2022/03/31 05:18:22;;;;;;;31.35;12.43;;;4.30;99.90;;;;;;4995356;28;20037;-53
2022/03/31 05:20:47;;;;;;;29.55;11.63;;;4.30;99.90;;;;;;4996469;28;20054;-58
2022/03/31 05:23:13;;;;;;;31.15;11.35;;;4.30;99.90;;;;;;4995531;28;20089;-58
2022/03/31 05:25:39;;;;;;;29.00;11.82;;;4.40;99.90;;;;;;4994563;28;20031;-56
2022/03/31 05:28:06;;;;;;;27.65;11.30;;;4.50;99.90;;;;;;4995470;28;20022;-53
2022/03/31 05:30:43;;;;;;;32.05;12.07;;;4.50;99.90;;;;;;4994522;28;20050;-55
2022/03/31 05:33:09;;;;;;;28.48;13.80;;;4.60;99.90;;;;;;4995854;28;20146;-57
2022/03/31 05:35:35;;;;;;;25.70;11.40;;;4.90;99.90;;;;;;4996070;28;20080;-52
2022/03/31 05:38:02;;;;;;;32.85;12.73;;;5.00;99.90;;;;;;4993985;28;20030;-53
2022/03/31 05:40:27;;;;;;;27.98;11.60;;;5.20;99.90;;;;;;4995508;28;20038;-51
2022/03/31 05:42:55;;;;;;;30.48;12.25;;;5.50;99.90;;;;;;4994186;28;20023;-57
2022/03/31 05:45:21;;;;;;;36.85;12.75;;;5.80;99.90;;;;;;4994001;28;20026;-54
2022/03/31 05:47:47;;;;;;;32.13;12.52;;;6.00;99.90;;;;;;4995157;28;20026;-56
2022/03/31 05:50:13;;;;;;;29.55;12.23;;;6.30;99.90;;;;;;4994193;28;20018;-58
2022/03/31 05:52:42;;;;;;;28.67;12.55;;;6.50;99.90;;;;;;4993984;28;20033;-57
2022/03/31 05:55:09;;;;;;;29.50;12.25;;;6.90;99.90;;;;;;4995355;28;20527;-54
2022/03/31 05:57:36;;;;;;;32.03;13.32;;;7.30;99.90;;;;;;4994083;28;20030;-55
2022/03/31 06:00:07;;;;;;;28.15;12.93;;;7.40;99.90;;;;;;4993909;28;20041;-57
2022/03/31 06:02:32;;;;;;;28.85;12.68;;;7.40;99.90;;;;;;4994885;28;20026;-58
2022/03/31 06:04:58;;;;;;;26.15;11.82;;;7.40;99.90;;;;;;4995111;28;20041;-58
2022/03/31 06:07:24;;;;;;;25.88;12.50;;;7.70;99.90;;;;;;4995385;28;20034;-56
2022/03/31 06:12:17;;;;;;;29.23;12.27;;;7.50;99.90;;;;;;5031543;28;20034;-50
2022/03/31 06:14:43;;;;;;;30.27;12.65;;;7.50;99.90;;;;;;5032795;28;20029;-50
2022/03/31 06:17:09;;;;;;;32.70;12.80;;;7.90;99.90;;;;;;5033500;28;20105;-53
2022/03/31 06:19:35;;;;;;;25.23;11.13;;;8.30;99.90;;;;;;5033966;28;20060;-51
2022/03/31 06:22:01;;;;;;;26.77;12.82;;;8.80;99.90;;;;;;5052051;28;20052;-51
2022/03/31 06:24:26;;;;;;;30.90;13.00;;;9.10;99.90;;;;;;5054193;28;20032;-53
2022/03/31 06:26:52;;;;;;;24.48;11.50;;;9.10;99.90;;;;;;5052769;28;20064;-52
2022/03/31 06:29:18;;;;;;;28.42;12.65;;;9.50;99.90;;;;;;5052553;28;20021;-51
2022/03/31 06:31:43;;;;;;;30.42;12.27;;;9.90;99.90;;;;;;5052435;28;20017;-51
2022/03/31 06:34:09;;;;;;;22.88;11.93;;;10.50;99.90;;;;;;5053677;28;20048;-50
2022/03/31 06:36:35;;;;;;;26.70;13.63;;;10.70;99.90;;;;;;5052417;28;20036;-51
2022/03/31 06:39:02;;;;;;;18.98;10.10;;;10.70;99.90;;;;;;5053551;28;20032;-49
2022/03/31 06:41:28;;;;;;;25.27;12.50;;;11.10;99.90;;;;;;5052451;28;20025;-55
2022/03/31 06:43:53;;;;;;;27.95;13.80;;;11.40;99.90;;;;;;5052263;28;20036;-55
2022/03/31 06:46:19;;;;;;;25.05;11.48;;;11.60;99.90;;;;;;5052414;28;20112;-54
2022/03/31 06:48:46;;;;;;;29.60;14.00;;;11.80;99.90;;;;;;5053475;28;20036;-55
2022/03/31 06:51:14;;;;;;;24.98;13.07;;;11.70;99.90;;;;;;5052953;28;20040;-54
2022/03/31 06:53:41;;;;;;;26.42;13.05;;;11.90;99.90;;;;;;5053454;28;20203;-55
2022/03/31 06:56:08;;;;;;;22.02;12.18;;;12.20;99.90;;;;;;5052164;28;20025;-53
2022/03/31 06:59:29;;;;;;;18.90;10.45;;;12.20;99.90;;;;;;5052323;28;20017;-52
2022/03/31 07:01:54;;;;;;;22.75;12.38;;;12.30;99.90;;;;;;5051994;28;20017;-52
2022/03/31 07:04:20;;;;;;;23.90;13.20;;;11.80;99.90;;;;;;5053861;28;20021;-52
2022/03/31 07:06:46;;;;;;;25.45;13.50;;;11.00;99.90;;;;;;5051910;28;20061;-54
2022/03/31 07:09:11;;;;;;;23.45;12.15;;;10.60;99.90;;;;;;5053530;28;20018;-54
2022/03/31 07:11:38;;;;;;;29.25;13.18;;;10.40;99.90;;;;;;5051696;28;20177;-55
2022/03/31 07:14:05;;;;;;;26.52;12.85;;;10.20;99.90;;;;;;5051852;28;20025;-53
2022/03/31 07:16:31;;;;;;;25.63;12.85;;;9.90;99.90;;;;;;5051879;28;20027;-55
2022/03/31 07:18:58;;;;;;;25.17;11.93;;;9.50;99.90;;;;;;5051805;28;20033;-51
2022/03/31 07:21:24;;;;;;;26.48;13.68;;;9.30;99.90;;;;;;5053147;28;20025;-54
2022/03/31 07:23:53;;;;;;;26.17;12.50;;;9.30;99.90;;;;;;5051801;28;20505;-56
2022/03/31 07:26:20;;;;;;;25.02;12.98;;;9.20;99.90;;;;;;5052944;28;20029;-51
2022/03/31 07:28:46;;;;;;;27.27;12.48;;;9.00;99.90;;;;;;5052912;28;20021;-53
2022/03/31 07:31:12;;;;;;;23.58;12.25;;;9.10;99.90;;;;;;5055723;28;20028;-49
2022/03/31 07:33:38;;;;;;;26.88;13.50;;;9.10;99.90;;;;;;5057039;28;20029;-53
2022/03/31 07:36:06;;;;;;;22.77;11.80;;;9.20;99.90;;;;;;5055749;28;20029;-54
2022/03/31 07:38:32;;;;;;;38.22;13.52;;;9.20;99.90;;;;;;5055963;28;20032;-52
2022/03/31 07:40:58;;;;;;;29.85;13.43;;;9.00;99.90;;;;;;5056321;28;20086;-52
2022/03/31 07:43:24;;;;;;;24.42;13.10;;;8.80;99.90;;;;;;5056003;28;20051;-55
2022/03/31 07:45:51;;;;;;;26.73;12.95;;;8.70;99.90;;;;;;5056958;28;20028;-56
2022/03/31 07:48:18;;;;;;;32.10;13.25;;;8.70;99.90;;;;;;5055701;28;20060;-54
2022/03/31 07:50:44;;;;;;;31.25;13.45;;;8.50;99.90;;;;;;5055374;28;20021;-49
2022/03/31 07:53:13;;;;;;;29.00;13.63;;;8.40;99.90;;;;;;5055874;28;20028;-55
2022/03/31 07:55:38;;;;;;;28.73;13.43;;;8.40;99.90;;;;;;5056223;28;20025;-54
2022/03/31 07:58:05;;;;;;;22.98;12.27;;;8.40;99.90;;;;;;5055631;28;20028;-56
2022/03/31 08:00:30;;;;;;;27.20;13.07;;;8.30;99.90;;;;;;5056512;28;20017;-53
2022/03/31 08:02:59;;;;;;;26.40;12.32;;;8.30;99.90;;;;;;5056559;28;20024;-55
2022/03/31 08:05:27;;;;;;;29.80;13.52;;;8.30;99.90;;;;;;5056555;28;20023;-54
2022/03/31 08:07:53;;;;;;;25.35;12.07;;;8.40;99.90;;;;;;5055892;28;20029;-56
2022/03/31 08:10:21;;;;;;;28.52;12.38;;;8.50;99.90;;;;;;5054541;28;20108;-54
2022/03/31 08:12:47;;;;;;;29.23;12.60;;;8.60;99.90;;;;;;5057054;28;20096;-48
2022/03/31 08:15:15;;;;;;;33.15;12.55;;;8.50;99.90;;;;;;5055411;28;20120;-50
2022/03/31 08:17:42;;;;;;;24.05;12.23;;;8.40;99.90;;;;;;5056893;28;20021;-51
2022/03/31 08:20:10;;;;;;;26.25;12.65;;;8.40;99.90;;;;;;5056150;28;20098;-51
2022/03/31 08:22:37;;;;;;;27.02;12.23;;;8.50;99.90;;;;;;5055264;28;20029;-48
2022/03/31 08:25:03;;;;;;;23.77;12.98;;;8.50;99.90;;;;;;5054915;28;20112;-50
2022/03/31 08:27:32;;;;;;;25.67;11.73;;;8.50;99.90;;;;;;5055061;28;20481;-49
2022/03/31 08:29:58;;;;;;;29.90;12.52;;;8.60;99.90;;;;;;5054692;28;20021;-51
2022/03/31 08:32:23;;;;;;;25.90;12.18;;;8.60;99.90;;;;;;5054680;28;20060;-53
2022/03/31 08:34:49;;;;;;;26.33;11.38;;;8.80;99.90;;;;;;5055915;28;20021;-48
2022/03/31 08:37:15;;;;;;;28.23;12.25;;;8.70;99.90;;;;;;5054600;28;20097;-51
2022/03/31 08:39:40;;;;;;;27.60;13.18;;;8.50;99.90;;;;;;5055701;28;20058;-52
2022/03/31 08:42:06;;;;;;;30.67;13.30;;;8.30;99.90;;;;;;5053724;28;20071;-50
2022/03/31 08:44:34;;;;;;;27.00;14.18;;;8.30;99.90;;;;;;5054367;28;20215;-51
2022/03/31 08:47:00;;;;;;;26.50;12.57;;;8.20;99.90;;;;;;5055842;28;20021;-53
2022/03/31 08:49:27;;;;;;;27.60;12.02;;;8.10;99.90;;;;;;5054264;28;20066;-53
2022/03/31 08:51:53;;;;;;;26.50;12.63;;;8.20;99.90;;;;;;5055513;28;20027;-51
2022/03/31 08:54:19;;;;;;;25.98;12.95;;;8.30;99.90;;;;;;5054275;28;20021;-50
2022/03/31 08:56:44;;;;;;;27.05;12.20;;;8.40;99.90;;;;;;5054783;28;20540;-52
2022/03/31 08:59:10;;;;;;;25.85;11.85;;;8.40;99.90;;;;;;5054146;28;20029;-51
2022/03/31 09:01:39;;;;;;;26.45;12.85;;;8.30;99.90;;;;;;5054082;28;20036;-52
2022/03/31 09:04:05;;;;;;;30.00;13.63;;;8.10;99.90;;;;;;5054041;28;20021;-52
2022/03/31 09:06:31;;;;;;;22.77;11.93;;;8.10;99.90;;;;;;5054762;28;20032;-50
2022/03/31 09:08:58;;;;;;;24.52;12.40;;;8.20;99.90;;;;;;5053968;28;20017;-54
2022/03/31 09:11:35;;;;;;;28.35;12.02;;;8.20;99.90;;;;;;5054058;28;20033;-54
2022/03/31 09:14:02;;;;;;;23.48;11.45;;;8.30;99.90;;;;;;5055115;28;20067;-50
2022/03/31 09:16:36;;;;;;;29.50;12.35;;;8.40;99.90;;;;;;5053810;28;20125;-52
2022/03/31 09:19:10;;;;;;;22.08;11.35;;;8.50;99.90;;;;;;5054373;28;20028;-51
2022/03/31 09:22:08;;;;;;;25.85;13.05;;;8.70;99.90;;;;;;5054051;28;20128;-49
2022/03/31 09:24:34;;;;;;;23.17;12.07;;;8.80;99.90;;;;;;5021561;28;20040;-50
2022/03/31 09:27:01;;;;;;;25.42;11.95;;;9.00;99.90;;;;;;5054835;28;20025;-49
2022/03/31 09:29:29;;;;;;;24.15;11.27;;;9.00;99.90;;;;;;5054839;28;20028;-50
2022/03/31 09:32:10;;;;;;;21.55;11.57;;;9.00;99.90;;;;;;5054942;28;20032;-49
2022/03/31 09:34:44;;;;;;;21.98;11.45;;;8.80;99.90;;;;;;5053637;28;20067;-50
2022/03/31 09:37:10;;;;;;;24.48;12.02;;;9.00;99.90;;;;;;5054730;28;20050;-48
2022/03/31 09:39:37;;;;;;;28.35;12.00;;;9.00;99.90;;;;;;5053445;28;20122;-51
2022/03/31 09:42:13;;;;;;;23.05;11.23;;;9.00;99.90;;;;;;5054468;28;20025;-49
2022/03/31 09:44:42;;;;;;;24.30;11.70;;;9.00;99.90;;;;;;5054872;28;20025;-49
2022/03/31 09:47:07;;;;;;;22.67;11.40;;;9.00;99.90;;;;;;5053151;28;20025;-51
2022/03/31 09:49:33;;;;;;;22.27;11.18;;;9.10;99.90;;;;;;5053162;28;20025;-49
2022/03/31 09:52:04;;;;;;;23.92;12.48;;;9.00;99.90;;;;;;5053671;28;20019;-48
2022/03/31 09:54:32;;;;;;;23.85;11.73;;;9.00;99.90;;;;;;5054208;28;20074;-50
2022/03/31 09:57:01;;;;;;;24.25;11.82;;;9.00;99.90;;;;;;5053382;28;20029;-52
2022/03/31 09:59:38;;;;;;;22.65;10.98;;;9.10;99.90;;;;;;5054287;28;20025;-49
2022/03/31 10:02:04;;;;;;;23.98;11.38;;;9.00;99.90;;;;;;5053009;28;20059;-52
2022/03/31 10:04:31;;;;;;;24.15;12.23;;;8.90;99.90;;;;;;5053229;28;20079;-50
2022/03/31 10:06:58;;;;;;;25.73;12.27;;;8.90;99.90;;;;;;5054024;28;20368;-52
2022/03/31 10:09:24;;;;;;;24.52;12.05;;;8.80;99.90;;;;;;5054065;28;20025;-49
2022/03/31 10:12:31;;;;;;;25.80;12.50;;;8.70;99.90;;;;;;5053995;28;20131;-48
2022/03/31 10:15:00;;;;;;;26.83;11.80;;;8.90;99.90;;;;;;5009541;28;20032;-50
2022/03/31 10:17:30;;;;;;;26.60;12.30;;;8.80;99.90;;;;;;5052697;28;20031;-48
2022/03/31 10:20:07;;;;;;;23.23;11.15;;;8.90;99.90;;;;;;5053887;28;20104;-53
2022/03/31 10:25:17;;;;;;;20.02;11.13;;;9.00;99.90;;;;;;5054122;28;20044;-52
2022/03/31 10:27:50;;;;;;;22.92;12.00;;;9.00;99.90;;;;;;5053907;28;20029;-53
2022/03/31 10:30:18;;;;;;;27.23;12.57;;;8.90;99.90;;;;;;5053648;28;20023;-47
2022/03/31 10:32:57;;;;;;;25.17;12.15;;;8.90;99.90;;;;;;5053671;28;20525;-52
2022/03/31 10:35:47;;;;;;;24.25;11.18;;;9.00;99.90;;;;;;5053718;28;20079;-54
2022/03/31 10:38:14;;;;;;;21.92;10.77;;;9.00;99.90;;;;;;5052018;28;20033;-50
2022/03/31 10:40:42;;;;;;;23.50;10.95;;;9.00;99.90;;;;;;5052184;28;20364;-51
2022/03/31 10:43:26;;;;;;;22.15;11.35;;;9.10;99.90;;;;;;5052258;28;20025;-53
2022/03/31 10:45:56;;;;;;;19.63;9.82;;;8.90;99.90;;;;;;5053475;28;20028;-50
2022/03/31 10:48:30;;;;;;;22.02;10.80;;;9.00;99.90;;;;;;5052300;28;20017;-48
2022/03/31 10:51:06;;;;;;;20.67;10.90;;;9.00;99.90;;;;;;5052264;28;20017;-49
2022/03/31 10:53:34;;;;;;;22.98;11.02;;;9.10;99.90;;;;;;5052118;28;20048;-50
2022/03/31 10:56:02;;;;;;;25.00;10.95;;;9.10;99.90;;;;;;5053308;28;20078;-53
2022/03/31 10:58:29;;;;;;;19.60;10.77;;;9.30;99.90;;;;;;5052045;28;20479;-50
2022/03/31 11:01:02;;;;;;;25.15;10.68;;;9.40;99.90;;;;;;5052361;28;20108;-50
2022/03/31 11:03:28;;;;;;;19.30;9.88;;;9.40;99.90;;;;;;5053044;28;20017;-52
2022/03/31 11:05:59;;;;;;;19.30;10.48;;;9.40;99.90;;;;;;5051349;28;20021;-50
2022/03/31 11:08:25;;;;;;;23.15;10.55;;;9.50;99.90;;;;;;5052419;28;20021;-51
2022/03/31 11:10:52;;;;;;;19.65;10.18;;;9.40;99.90;;;;;;5051322;28;20052;-48
2022/03/31 11:13:29;;;;;;;20.35;10.85;;;9.50;99.90;;;;;;5052920;28;20060;-52
2022/03/31 11:15:55;;;;;;;20.45;11.20;;;9.60;99.90;;;;;;5051932;28;20056;-48
2022/03/31 11:18:21;;;;;;;22.30;9.95;;;9.50;99.90;;;;;;5052629;28;20032;-50
2022/03/31 11:21:05;;;;;;;20.83;9.95;;;9.50;99.90;;;;;;5053166;28;20379;-49
2022/03/31 11:23:31;;;;;;;21.58;10.80;;;9.50;99.90;;;;;;5053056;28;20071;-52
2022/03/31 11:25:58;;;;;;;19.25;10.77;;;9.50;99.90;;;;;;5052869;28;20021;-50
2022/03/31 11:28:34;;;;;;;20.33;10.60;;;9.30;99.90;;;;;;5053069;28;20017;-48
2022/03/31 11:31:00;;;;;;;22.92;10.25;;;9.50;99.90;;;;;;5051772;28;20021;-48
2022/03/31 11:33:34;;;;;;;22.83;11.02;;;9.50;99.90;;;;;;5052959;28;20013;-51
2022/03/31 11:36:00;;;;;;;19.70;10.20;;;9.40;99.90;;;;;;5053331;28;20017;-48
2022/03/31 11:38:27;;;;;;;19.10;10.27;;;9.40;99.90;;;;;;5052859;28;20032;-50
2022/03/31 11:40:52;;;;;;;18.90;9.85;;;9.30;99.90;;;;;;5052793;28;20025;-49
2022/03/31 11:43:19;;;;;;;16.48;9.38;;;9.30;99.90;;;;;;5052801;28;20021;-52
2022/03/31 11:45:51;;;;;;;21.42;9.45;;;9.30;99.90;;;;;;5051537;28;20055;-52
2022/03/31 11:48:41;;;;;;;19.80;10.15;;;9.30;99.90;;;;;;5052902;28;20052;-57
2022/03/31 11:51:08;;;;;;;16.83;9.68;;;9.30;99.90;;;;;;5052624;28;20052;-55
2022/03/31 11:53:45;;;;;;;16.60;8.85;;;9.30;99.90;;;;;;5053145;28;20104;-52
2022/03/31 11:56:26;;;;;;;18.45;9.43;;;9.50;99.90;;;;;;5052675;28;20028;-54
2022/03/31 11:58:57;;;;;;;18.43;9.73;;;9.40;99.90;;;;;;5051575;28;20036;-50
2022/03/31 12:01:37;;;;;;;19.13;10.35;;;9.30;99.90;;;;;;5051890;28;20029;-54
2022/03/31 12:04:04;;;;;;;18.20;9.63;;;9.10;99.90;;;;;;5053004;28;20116;-51
2022/03/31 12:06:33;;;;;;;21.52;9.75;;;9.20;99.90;;;;;;5052191;28;20370;-52
2022/03/31 12:09:00;;;;;;;18.90;9.85;;;9.30;99.90;;;;;;5051393;28;20028;-54
2022/03/31 12:11:29;;;;;;;16.95;8.40;;;9.40;99.90;;;;;;5051501;28;20474;-49
2022/03/31 12:13:57;;;;;;;16.60;8.68;;;9.50;99.90;;;;;;5052234;28;20028;-54
2022/03/31 12:16:24;;;;;;;15.45;8.60;;;9.70;99.90;;;;;;5054570;28;20029;-52
2022/03/31 12:18:58;;;;;;;17.58;8.52;;;9.60;99.90;;;;;;5056414;28;20029;-49
2022/03/31 12:21:27;;;;;;;22.95;9.77;;;9.50;99.90;;;;;;5056359;28;20097;-51
2022/03/31 12:23:56;;;;;;;19.45;9.23;;;9.40;99.90;;;;;;5055100;28;20052;-53
2022/03/31 12:26:22;;;;;;;14.93;8.02;;;9.30;99.90;;;;;;5056070;28;20036;-53
2022/03/31 12:28:49;;;;;;;21.10;9.95;;;9.10;99.90;;;;;;5056002;28;20013;-50
2022/03/31 12:31:22;;;;;;;14.73;8.50;;;8.90;99.90;;;;;;5054979;28;20023;-48
2022/03/31 12:33:50;;;;;;;16.50;9.50;;;9.20;99.90;;;;;;5055872;28;20382;-52
2022/03/31 12:36:22;;;;;;;19.83;9.00;;;9.20;99.90;;;;;;5055837;28;20055;-50
2022/03/31 12:38:50;;;;;;;19.23;10.10;;;9.00;99.90;;;;;;5056117;28;20037;-50
2022/03/31 12:41:21;;;;;;;16.15;8.13;;;9.00;99.90;;;;;;5055718;28;20033;-48
2022/03/31 12:44:12;;;;;;;17.58;9.02;;;9.10;99.90;;;;;;5055801;28;20021;-50
2022/03/31 12:46:43;;;;;;;21.58;10.98;;;9.00;99.90;;;;;;5055648;28;20025;-49
2022/03/31 12:49:10;;;;;;;15.07;8.80;;;9.00;99.90;;;;;;5055290;28;20027;-50
2022/03/31 12:52:03;;;;;;;16.00;8.20;;;9.00;99.90;;;;;;5055813;28;20021;-53